Santy — V7TV6 — position and weather

sailwx.info

Track history (hours):
 
Tides and Currents Weather Stations Pressure Air Temp Water Temp Dewpoint Dewpoint Depression Visibility Wind Speed Wind Dir Waves Ship Positions

Santy

Last reported at 2017-Dec-11 15:17 UTC. Time now 2017-Dec-15 20:02 UTC.
Position N 01°20' E 103°17'.

Length 190 m; draft 11.6 m.

Type: Cargo ship. MMSI: 538003892.

Date/timePositionNaut miles runAvg speedWind from/ knotsBaromVisibWave heightAir tempDewpointWater temp
2017-Dec-11 15:17N 01°20' E 103°17'612.6
2017-Dec-11 14:50N 01°17' E 103°21'512.5
2017-Dec-11 14:27N 01°14' E 103°25'612.2
2017-Dec-11 13:59N 01°13' E 103°31'511.4
2017-Dec-11 13:30N 01°12' E 103°36'511.1
2017-Dec-11 13:01N 01°10' E 103°41'5 9.8
2017-Dec-11 12:31N 01°09' E 103°46'510.5
2017-Dec-11 12:00N 01°12' E 103°51'611.1
2017-Dec-11 11:30N 01°14' E 103°56'510.1
2017-Dec-11 10:59N 01°16' E 104°00'2 0.2
2017-Dec-11 01:35N 01°16' E 103°58'  
Track history (hours):
 
Tides and Currents Weather Stations Pressure Air Temp Water Temp Dewpoint Dewpoint Depression Visibility Wind Speed Wind Dir Waves Ship Positions

Santy

Last reported at 2017-Dec-11 15:17 UTC. Time now 2017-Dec-15 20:02 UTC.
Position N 01°20' E 103°17'.

Length 190 m; draft 11.6 m.

Type: Cargo ship. MMSI: 538003892.

Date/timePositionNaut miles runAvg speedWind from/ knotsBaromVisibWave heightAir tempDewpointWater temp
2017-Dec-11 15:17N 01°20' E 103°17'612.6
2017-Dec-11 14:50N 01°17' E 103°21'512.5
2017-Dec-11 14:27N 01°14' E 103°25'612.2
2017-Dec-11 13:59N 01°13' E 103°31'511.4
2017-Dec-11 13:30N 01°12' E 103°36'511.1
2017-Dec-11 13:01N 01°10' E 103°41'5 9.8
2017-Dec-11 12:31N 01°09' E 103°46'510.5
2017-Dec-11 12:00N 01°12' E 103°51'611.1
2017-Dec-11 11:30N 01°14' E 103°56'510.1
2017-Dec-11 10:59N 01°16' E 104°00'2 0.2
2017-Dec-11 01:35N 01°16' E 103°58'  

Dump ship's entire track history